createdAt,value
2023-04-11T00:01:03.029Z,6.44
2023-04-11T00:03:30.354Z,6.43
2023-04-11T00:05:57.601Z,6.40
2023-04-11T00:08:24.861Z,6.49
2023-04-11T00:10:51.998Z,6.50
2023-04-11T00:13:19.886Z,6.45
2023-04-11T00:15:47.885Z,6.51
2023-04-11T00:18:15.078Z,6.55
2023-04-11T00:20:45.090Z,6.57
2023-04-11T00:23:12.336Z,6.51
2023-04-11T00:25:39.516Z,6.47
2023-04-11T00:28:06.589Z,6.48
2023-04-11T00:30:33.799Z,6.47
2023-04-11T00:33:01.079Z,6.41
2023-04-11T00:35:28.384Z,6.41
2023-04-11T00:37:56.344Z,6.43
2023-04-11T00:40:23.604Z,6.43
2023-04-11T00:42:50.717Z,6.48
2023-04-11T00:45:17.837Z,6.49
2023-04-11T00:47:45.032Z,6.54
2023-04-11T00:50:14.096Z,6.53
2023-04-11T00:52:42.855Z,6.54
2023-04-11T00:55:10.157Z,6.56
2023-04-11T00:57:38.290Z,6.58
2023-04-11T01:00:09.726Z,6.58
2023-04-11T01:02:37.983Z,6.53
2023-04-11T01:05:05.317Z,6.53
2023-04-11T01:07:32.968Z,6.55
2023-04-11T01:10:01.250Z,6.55
2023-04-11T01:12:29.349Z,6.56
2023-04-11T01:14:56.797Z,6.57
2023-04-11T01:17:25.863Z,6.58
2023-04-11T01:19:53.129Z,6.61
2023-04-11T01:22:24.511Z,6.61
2023-04-11T01:24:52.076Z,6.60
2023-04-11T01:27:19.713Z,6.64
2023-04-11T01:29:46.874Z,6.61
2023-04-11T01:32:13.977Z,6.58
2023-04-11T01:34:42.283Z,6.62
2023-04-11T01:37:09.524Z,6.62
2023-04-11T01:39:36.801Z,6.62
2023-04-11T01:42:04.488Z,6.62
2023-04-11T01:44:32.221Z,6.61
2023-04-11T01:46:59.603Z,6.58
2023-04-11T01:49:26.912Z,6.61
2023-04-11T01:51:54.135Z,6.63
2023-04-11T01:54:21.251Z,6.64
2023-04-11T01:56:48.407Z,6.63
2023-04-11T01:59:15.775Z,6.65
2023-04-11T02:01:44.514Z,6.69
2023-04-11T02:04:12.000Z,6.70
2023-04-11T02:06:41.729Z,6.72
2023-04-11T02:09:08.835Z,6.73
2023-04-11T02:11:36.291Z,6.71
2023-04-11T02:14:03.931Z,6.67
2023-04-11T02:16:31.150Z,6.58
2023-04-11T02:18:59.508Z,6.58
2023-04-11T02:21:26.789Z,6.58
2023-04-11T02:23:53.874Z,6.61
2023-04-11T02:26:21.030Z,6.65
2023-04-11T02:28:48.604Z,6.65
2023-04-11T02:31:15.853Z,6.63
2023-04-11T02:33:43.849Z,6.65
2023-04-11T02:36:12.402Z,6.62
2023-04-11T02:38:39.597Z,6.61
2023-04-11T02:41:08.446Z,6.60
2023-04-11T02:43:35.630Z,6.59
2023-04-11T02:46:12.170Z,6.60
2023-04-11T02:48:42.240Z,6.62
2023-04-11T02:51:10.877Z,6.61
2023-04-11T02:53:37.995Z,6.66
2023-04-11T02:56:05.442Z,6.62
2023-04-11T02:58:32.955Z,6.65
2023-04-11T03:01:06.000Z,6.63
2023-04-11T03:03:33.199Z,6.66
2023-04-11T03:06:00.344Z,6.67
2023-04-11T03:08:27.657Z,6.68
2023-04-11T03:10:54.832Z,6.67
2023-04-11T03:13:25.261Z,6.63
2023-04-11T03:15:52.302Z,6.63
2023-04-11T03:18:20.420Z,6.63
2023-04-11T03:20:48.750Z,6.59
2023-04-11T03:23:17.278Z,6.58
2023-04-11T03:25:48.034Z,6.55
2023-04-11T03:28:16.150Z,6.59
2023-04-11T03:30:43.500Z,6.56
2023-04-11T03:33:13.442Z,6.56
2023-04-11T03:35:40.543Z,6.60
2023-04-11T03:38:07.652Z,6.60
2023-04-11T03:40:34.756Z,6.58
2023-04-11T03:43:08.584Z,6.61
2023-04-11T03:45:37.052Z,6.59
2023-04-11T03:48:07.158Z,6.63
2023-04-11T03:50:47.035Z,6.64
2023-04-11T03:53:16.521Z,6.65
2023-04-11T03:55:45.243Z,6.63
2023-04-11T03:58:16.045Z,6.61
2023-04-11T04:00:43.824Z,6.64
2023-04-11T04:03:11.086Z,6.63
2023-04-11T04:05:40.492Z,6.63
2023-04-11T04:08:08.555Z,6.65
2023-04-11T04:10:44.057Z,6.64
2023-04-11T04:13:11.464Z,6.72
2023-04-11T04:15:42.480Z,6.74
2023-04-11T04:18:11.626Z,6.75
2023-04-11T04:20:47.008Z,6.75
2023-04-11T04:23:14.201Z,6.77
2023-04-11T04:25:51.914Z,6.77
2023-04-11T04:28:23.435Z,6.77
2023-04-11T04:30:54.263Z,6.78
2023-04-11T04:33:24.528Z,6.75
2023-04-11T04:35:59.912Z,6.77
2023-04-11T04:38:30.869Z,6.74
2023-04-11T04:40:59.545Z,6.78
2023-04-11T04:43:32.337Z,6.82
2023-04-11T04:46:08.871Z,6.83
2023-04-11T04:48:43.006Z,6.90
2023-04-11T04:51:10.384Z,6.92
2023-04-11T04:53:38.913Z,7.02
2023-04-11T04:56:08.195Z,7.08
2023-04-11T04:58:39.692Z,7.07
2023-04-11T05:01:11.279Z,7.14
2023-04-11T05:03:39.080Z,7.18
2023-04-11T05:06:11.199Z,7.24
2023-04-11T05:08:39.797Z,7.26
2023-04-11T05:11:09.493Z,7.23
2023-04-11T05:13:37.189Z,7.24
2023-04-11T05:16:05.720Z,7.27
2023-04-11T05:18:32.885Z,7.30
2023-04-11T05:21:01.414Z,7.32
2023-04-11T05:23:34.697Z,7.31
2023-04-11T05:26:03.521Z,7.35
2023-04-11T05:28:32.603Z,7.38
2023-04-11T05:31:00.555Z,7.38
2023-04-11T05:33:28.709Z,7.42
2023-04-11T05:35:57.131Z,7.45
2023-04-11T05:38:24.236Z,7.47
2023-04-11T05:40:51.342Z,7.42
2023-04-11T05:43:19.754Z,7.47
2023-04-11T05:45:48.135Z,7.49
2023-04-11T05:48:17.584Z,7.52
2023-04-11T05:50:44.690Z,7.55
2023-04-11T05:53:12.434Z,7.56
2023-04-11T05:55:39.532Z,7.60
2023-04-11T05:58:06.676Z,7.62
2023-04-11T06:00:33.711Z,7.71
2023-04-11T06:03:01.856Z,7.73
2023-04-11T06:05:31.461Z,7.75
2023-04-11T06:08:01.794Z,7.78
2023-04-11T06:10:29.563Z,7.81
2023-04-11T06:12:56.839Z,7.80
2023-04-11T06:15:24.506Z,7.81
2023-04-11T06:17:51.696Z,7.78
2023-04-11T06:20:19.392Z,7.74
2023-04-11T06:22:47.067Z,7.69
2023-04-11T06:25:14.458Z,7.57
2023-04-11T06:27:41.511Z,6.97
2023-04-11T06:30:09.256Z,6.71
2023-04-11T06:32:36.518Z,6.47
2023-04-11T06:35:03.836Z,6.48
2023-04-11T06:37:31.505Z,6.38
2023-04-11T06:39:59.131Z,6.39
2023-04-11T06:42:26.605Z,6.32
2023-04-11T06:44:53.720Z,6.40
2023-04-11T06:47:20.827Z,6.35
2023-04-11T06:49:47.914Z,6.43
2023-04-11T06:52:15.495Z,6.41
2023-04-11T06:54:42.559Z,6.34
2023-04-11T06:57:10.553Z,6.36
2023-04-11T06:59:37.616Z,6.29
2023-04-11T07:02:04.792Z,6.24
2023-04-11T07:04:32.071Z,6.19
2023-04-11T07:06:59.307Z,6.19
2023-04-11T07:09:26.460Z,6.29
2023-04-11T07:11:53.530Z,6.32
2023-04-11T07:14:20.608Z,6.20
2023-04-11T07:16:47.740Z,6.21
2023-04-11T07:19:14.814Z,6.28
2023-04-11T07:21:42.012Z,6.31
2023-04-11T07:24:10.625Z,6.25
2023-04-11T07:26:38.717Z,6.30
2023-04-11T07:29:08.107Z,6.27
2023-04-11T07:31:37.215Z,6.25
2023-04-11T07:34:04.340Z,6.22
2023-04-11T07:36:31.879Z,6.23
2023-04-11T07:39:00.259Z,6.26
2023-04-11T07:41:27.750Z,6.30
2023-04-11T07:43:55.054Z,6.36
2023-04-11T07:46:22.284Z,6.30
2023-04-11T07:48:49.487Z,6.33
2023-04-11T07:51:17.181Z,6.37
2023-04-11T07:53:44.315Z,6.40
2023-04-11T07:56:11.382Z,6.37
2023-04-11T07:58:38.533Z,6.43
2023-04-11T08:01:06.330Z,6.50
2023-04-11T08:03:33.739Z,6.51
2023-04-11T08:06:01.154Z,6.54
2023-04-11T08:08:28.216Z,6.54
2023-04-11T08:10:55.304Z,6.46
2023-04-11T08:13:22.400Z,6.50
2023-04-11T08:15:49.685Z,6.49
2023-04-11T08:18:16.789Z,6.44
2023-04-11T08:20:43.904Z,6.47
2023-04-11T08:23:11.288Z,6.58
2023-04-11T08:25:39.145Z,6.63
2023-04-11T08:28:06.566Z,6.63
2023-04-11T08:30:33.753Z,6.60
2023-04-11T08:33:00.902Z,6.74
2023-04-11T08:35:28.076Z,6.86
2023-04-11T08:37:55.172Z,6.94
2023-04-11T08:40:22.320Z,7.04
2023-04-11T08:42:49.396Z,7.10
2023-04-11T08:45:16.459Z,7.18
2023-04-11T08:47:45.408Z,7.26
2023-04-11T08:50:13.026Z,7.27
2023-04-11T08:52:40.517Z,7.33
2023-04-11T08:55:07.837Z,7.35
2023-04-11T08:57:38.217Z,7.37
2023-04-11T09:00:25.011Z,7.27
2023-04-11T09:02:55.323Z,7.31
2023-04-11T09:05:32.901Z,7.70
2023-04-11T09:08:01.401Z,7.63
2023-04-11T09:10:28.579Z,7.71
2023-04-11T09:12:56.198Z,7.72
2023-04-11T09:15:24.882Z,7.75
2023-04-11T09:17:52.332Z,7.71
2023-04-11T09:20:20.377Z,7.71
2023-04-11T09:22:50.971Z,7.53
2023-04-11T09:25:19.715Z,7.49
2023-04-11T09:27:47.180Z,7.41
2023-04-11T09:30:20.081Z,7.21
2023-04-11T09:32:48.804Z,7.12
2023-04-11T09:35:27.493Z,7.20
2023-04-11T09:37:56.578Z,7.25
2023-04-11T09:40:27.212Z,7.40
2023-04-11T09:42:57.887Z,7.56
2023-04-11T09:45:25.515Z,7.53
2023-04-11T09:47:54.332Z,7.44
2023-04-11T09:50:21.881Z,7.64
2023-04-11T09:52:49.280Z,8.08
2023-04-11T09:55:18.250Z,8.57
2023-04-11T09:57:46.884Z,8.77
2023-04-11T10:00:17.037Z,8.69
2023-04-11T10:02:45.192Z,8.03
2023-04-11T10:05:13.428Z,7.85
2023-04-11T10:07:55.424Z,7.86
2023-04-11T10:10:23.750Z,7.96
2023-04-11T10:12:51.405Z,7.91
2023-04-11T10:15:18.642Z,8.05
2023-04-11T10:18:05.338Z,7.72
2023-04-11T10:20:35.783Z,7.94
2023-04-11T10:23:05.960Z,7.82
2023-04-11T10:25:47.722Z,7.93
2023-04-11T10:28:29.381Z,7.96
2023-04-11T10:31:04.643Z,8.43
2023-04-11T10:33:35.479Z,8.78
2023-04-11T10:36:03.433Z,9.17
2023-04-11T10:38:49.040Z,9.29
2023-04-11T10:41:19.547Z,9.68
2023-04-11T10:43:47.049Z,10.02
2023-04-11T10:46:21.405Z,10.22
2023-04-11T10:48:58.888Z,10.32
2023-04-11T10:51:26.838Z,9.69
2023-04-11T10:53:54.625Z,9.66
2023-04-11T10:56:41.647Z,9.37
2023-04-11T10:59:27.249Z,9.52
2023-04-11T11:01:55.143Z,9.36
2023-04-11T11:04:30.896Z,9.50
2023-04-11T11:06:58.326Z,9.49
2023-04-11T11:09:26.313Z,9.20
2023-04-11T11:12:06.530Z,9.26
2023-04-11T11:14:33.795Z,9.99
2023-04-11T11:17:01.257Z,10.14
2023-04-11T11:19:28.868Z,9.91
2023-04-11T11:21:56.092Z,10.02
2023-04-11T11:24:26.643Z,10.04
2023-04-11T11:26:54.718Z,9.67
2023-04-11T11:29:34.997Z,9.23
2023-04-11T11:32:03.841Z,9.41
2023-04-11T11:34:32.030Z,9.17
2023-04-11T11:37:01.570Z,9.58
2023-04-11T11:39:32.718Z,9.56
2023-04-11T11:42:00.228Z,9.82
2023-04-11T11:44:28.255Z,9.69
2023-04-11T11:47:01.460Z,9.77
2023-04-11T11:49:42.571Z,9.33
2023-04-11T11:52:09.654Z,9.23
2023-04-11T11:54:43.205Z,9.38
2023-04-11T11:57:10.364Z,9.42
2023-04-11T11:59:37.845Z,9.87
2023-04-11T12:02:09.037Z,9.97
2023-04-11T12:04:51.084Z,10.08
2023-04-11T12:07:22.690Z,10.36
2023-04-11T12:09:51.644Z,10.28
2023-04-11T12:12:18.695Z,10.08
2023-04-11T12:14:57.309Z,10.42
2023-04-11T12:17:33.558Z,10.58
2023-04-11T12:20:02.366Z,10.87
2023-04-11T12:22:29.418Z,10.50
2023-04-11T12:25:05.739Z,10.95
2023-04-11T12:27:36.686Z,10.75
2023-04-11T12:30:06.772Z,10.83
2023-04-11T12:32:34.184Z,10.72
2023-04-11T12:35:02.011Z,10.78
2023-04-11T12:37:29.166Z,10.73
2023-04-11T12:39:56.246Z,10.37
2023-04-11T12:42:26.730Z,10.43
2023-04-11T12:44:54.406Z,10.49
2023-04-11T12:47:21.580Z,10.95
2023-04-11T12:49:48.694Z,11.41
2023-04-11T12:52:15.765Z,11.49
2023-04-11T12:54:42.895Z,11.84
2023-04-11T12:57:09.949Z,11.82
2023-04-11T12:59:36.960Z,11.76
2023-04-11T13:02:04.189Z,11.63
2023-04-11T13:04:31.386Z,11.54
2023-04-11T13:07:01.687Z,11.33
2023-04-11T13:09:44.843Z,11.60
2023-04-11T13:12:11.916Z,11.27
2023-04-11T13:14:38.957Z,10.73
2023-04-11T13:17:06.036Z,10.51
2023-04-11T13:19:33.216Z,10.63
2023-04-11T13:22:00.339Z,10.61
2023-04-11T13:24:27.502Z,10.40
2023-04-11T13:26:54.699Z,9.94
2023-04-11T13:29:21.739Z,9.55
2023-04-11T13:31:49.337Z,9.53
2023-04-11T13:34:16.524Z,9.51
2023-04-11T13:36:44.017Z,9.78
2023-04-11T13:39:11.280Z,9.92
2023-04-11T13:41:38.356Z,10.11
2023-04-11T13:44:05.513Z,10.35
2023-04-11T13:46:32.600Z,10.61
2023-04-11T13:49:00.496Z,10.72
2023-04-11T13:51:27.933Z,11.05
2023-04-11T13:53:55.131Z,10.84
2023-04-11T13:56:23.654Z,10.35
2023-04-11T13:58:55.242Z,10.56
2023-04-11T14:01:22.585Z,10.57
2023-04-11T14:03:50.232Z,10.27
2023-04-11T14:06:19.317Z,10.14
2023-04-11T14:08:47.358Z,10.24
2023-04-11T14:11:15.433Z,10.64
2023-04-11T14:13:42.470Z,10.80
2023-04-11T14:16:09.842Z,10.92
2023-04-11T14:18:37.052Z,10.83
2023-04-11T14:21:07.221Z,10.49
2023-04-11T14:23:34.442Z,10.68
2023-04-11T14:26:01.691Z,10.74
2023-04-11T14:28:28.787Z,10.71
2023-04-11T14:30:56.103Z,10.70
2023-04-11T14:33:23.498Z,10.84
2023-04-11T14:35:50.907Z,10.79
2023-04-11T14:38:18.233Z,10.88
2023-04-11T14:40:45.548Z,10.46
2023-04-11T14:43:12.595Z,10.74
2023-04-11T14:45:39.711Z,10.16
2023-04-11T14:48:06.883Z,10.24
2023-04-11T14:50:34.062Z,10.15
2023-04-11T14:53:01.160Z,10.13
2023-04-11T14:55:28.312Z,9.76
2023-04-11T14:57:55.997Z,10.02
2023-04-11T15:00:25.133Z,10.09
2023-04-11T15:02:53.877Z,9.96
2023-04-11T15:05:22.501Z,9.81
2023-04-11T15:10:07.205Z,9.72
2023-04-11T15:12:34.457Z,9.80
2023-04-11T15:15:01.526Z,9.97
2023-04-11T15:17:28.628Z,10.16
2023-04-11T15:19:56.777Z,10.05
2023-04-11T15:22:23.812Z,9.92
2023-04-11T15:24:51.485Z,9.66
2023-04-11T15:27:18.558Z,9.97
2023-04-11T15:29:45.617Z,10.13
2023-04-11T15:32:12.836Z,9.69
2023-04-11T15:34:40.608Z,9.54
2023-04-11T15:37:11.425Z,9.34
2023-04-11T15:39:38.573Z,9.23
2023-04-11T15:42:06.238Z,9.28
2023-04-11T15:44:33.497Z,9.41
2023-04-11T15:47:00.746Z,9.34
2023-04-11T15:49:27.881Z,9.37
2023-04-11T15:51:54.923Z,9.29
2023-04-11T15:54:21.950Z,9.23
2023-04-11T15:56:50.131Z,8.85
2023-04-11T16:01:59.354Z,8.82
2023-04-11T16:04:27.184Z,8.80
2023-04-11T16:06:54.499Z,8.89
2023-04-11T16:09:21.623Z,8.74
2023-04-11T16:11:48.773Z,8.77
2023-04-11T16:14:15.975Z,8.73
2023-04-11T16:16:44.836Z,8.69
2023-04-11T16:19:11.978Z,8.66
2023-04-11T16:21:39.061Z,8.59
2023-04-11T16:24:06.275Z,8.61
2023-04-11T16:26:33.373Z,8.56
2023-04-11T16:29:00.407Z,8.54
2023-04-11T16:31:27.522Z,8.46
2023-04-11T16:33:55.272Z,8.57
2023-04-11T16:36:22.648Z,8.51
2023-04-11T16:38:49.825Z,8.52
2023-04-11T16:41:19.545Z,8.48
2023-04-11T16:43:46.628Z,8.49
2023-04-11T16:46:14.209Z,8.40
2023-04-11T16:48:41.850Z,8.46
2023-04-11T16:51:12.572Z,8.35
2023-04-11T16:53:39.945Z,8.29
2023-04-11T16:56:07.158Z,8.14
2023-04-11T16:58:34.205Z,8.10
2023-04-11T17:01:01.830Z,8.04
2023-04-11T17:03:35.196Z,7.99
2023-04-11T17:06:02.771Z,7.90
2023-04-11T17:08:31.059Z,7.81
2023-04-11T17:11:06.728Z,7.62
2023-04-11T17:13:33.934Z,7.68
2023-04-11T17:16:01.328Z,7.65
2023-04-11T17:18:30.988Z,7.63
2023-04-11T17:20:58.206Z,7.51
2023-04-11T17:23:38.985Z,7.43
2023-04-11T17:26:09.518Z,7.30
2023-04-11T17:28:36.798Z,7.55
2023-04-11T17:31:13.149Z,7.47
2023-04-11T17:33:40.649Z,7.53
2023-04-11T17:36:08.218Z,7.61
2023-04-11T17:38:36.600Z,7.61
2023-04-11T17:41:13.726Z,7.46
2023-04-11T17:43:42.014Z,7.47
2023-04-11T17:46:09.287Z,7.34
2023-04-11T17:48:36.731Z,7.39
2023-04-11T17:51:05.635Z,7.42
2023-04-11T17:53:33.346Z,7.29
2023-04-11T17:56:07.694Z,6.99
2023-04-11T17:58:35.405Z,6.75
2023-04-11T18:01:05.325Z,6.51
2023-04-11T18:03:34.922Z,6.40
2023-04-11T18:06:02.841Z,6.17
2023-04-11T18:08:49.014Z,6.65
2023-04-11T18:11:17.915Z,6.39
2023-04-11T18:13:46.411Z,6.24
2023-04-11T18:16:14.866Z,6.16
2023-04-11T18:18:41.982Z,6.01
2023-04-11T18:21:09.018Z,5.74
2023-04-11T18:23:36.222Z,5.75
2023-04-11T18:26:03.269Z,5.76
2023-04-11T18:28:30.503Z,5.94
2023-04-11T18:30:57.695Z,6.25
2023-04-11T18:33:25.647Z,6.00
2023-04-11T18:35:52.794Z,6.39
2023-04-11T18:38:19.877Z,6.48
2023-04-11T18:40:48.390Z,6.55
2023-04-11T18:43:15.846Z,6.57
2023-04-11T18:45:43.463Z,6.35
2023-04-11T18:48:11.443Z,6.32
2023-04-11T18:50:42.699Z,6.33
2023-04-11T18:53:13.168Z,6.37
2023-04-11T18:55:41.339Z,6.15
2023-04-11T18:58:09.834Z,6.06
2023-04-11T19:00:39.175Z,5.84
2023-04-11T19:03:07.069Z,5.83
2023-04-11T19:05:34.898Z,5.97
2023-04-11T19:08:02.046Z,5.89
2023-04-11T19:10:29.152Z,5.86
2023-04-11T19:12:58.254Z,5.82
2023-04-11T19:15:25.995Z,5.74
2023-04-11T19:17:53.943Z,5.65
2023-04-11T19:20:22.561Z,5.57
2023-04-11T19:22:50.953Z,5.55
2023-04-11T19:25:18.080Z,5.48
2023-04-11T19:27:46.201Z,5.36
2023-04-11T19:30:13.894Z,5.53
2023-04-11T19:32:43.533Z,5.29
2023-04-11T19:35:11.547Z,5.27
2023-04-11T19:37:39.046Z,5.52
2023-04-11T19:40:15.693Z,5.62
2023-04-11T19:42:44.191Z,5.63
2023-04-11T19:45:11.806Z,5.63
2023-04-11T19:47:39.836Z,5.58
2023-04-11T19:50:12.117Z,5.32
2023-04-11T19:52:39.553Z,5.12
2023-04-11T19:55:07.654Z,5.29
2023-04-11T19:57:43.403Z,5.43
2023-04-11T20:00:17.567Z,5.40
2023-04-11T20:02:45.692Z,5.32
2023-04-11T20:05:17.050Z,5.42
2023-04-11T20:07:45.146Z,5.55
2023-04-11T20:10:12.983Z,5.42
2023-04-11T20:12:40.085Z,5.16
2023-04-11T20:15:07.851Z,5.19
2023-04-11T20:17:35.998Z,4.92
2023-04-11T20:20:06.110Z,5.23
2023-04-11T20:22:33.324Z,5.13
2023-04-11T20:25:00.436Z,5.01
2023-04-11T20:27:28.219Z,4.79
2023-04-11T20:29:56.787Z,4.87
2023-04-11T20:32:24.944Z,5.16
2023-04-11T20:34:52.170Z,5.19
2023-04-11T20:37:19.602Z,5.31
2023-04-11T20:39:46.728Z,5.28
2023-04-11T20:42:13.818Z,5.07
2023-04-11T20:44:41.658Z,4.98
2023-04-11T20:47:09.179Z,5.08
2023-04-11T20:49:36.252Z,4.79
2023-04-11T20:52:03.688Z,4.65
2023-04-11T20:54:30.808Z,4.58
2023-04-11T20:56:57.879Z,4.51
2023-04-11T20:59:26.361Z,4.85
2023-04-11T21:01:53.834Z,4.99
2023-04-11T21:04:22.244Z,5.01
2023-04-11T21:06:49.825Z,4.88
2023-04-11T21:09:17.370Z,4.91
2023-04-11T21:11:44.468Z,4.98
2023-04-11T21:14:11.553Z,4.93
2023-04-11T21:16:39.807Z,4.73
2023-04-11T21:19:06.898Z,4.77
2023-04-11T21:21:34.143Z,4.84
2023-04-11T21:24:04.017Z,4.92
2023-04-11T21:26:31.372Z,4.92
2023-04-11T21:28:58.435Z,4.79
2023-04-11T21:31:25.551Z,4.78
2023-04-11T21:33:54.895Z,4.83
2023-04-11T21:36:21.972Z,4.85
2023-04-11T21:38:49.036Z,4.86
2023-04-11T21:41:16.211Z,4.80
2023-04-11T21:43:43.465Z,4.79
2023-04-11T21:46:10.722Z,4.76
2023-04-11T21:48:38.047Z,4.76
2023-04-11T21:51:05.243Z,4.34
2023-04-11T21:53:33.479Z,4.51
2023-04-11T21:56:04.999Z,4.65
2023-04-11T21:58:32.034Z,4.56
2023-04-11T22:00:59.227Z,4.45
2023-04-11T22:03:28.994Z,4.35
2023-04-11T22:05:58.179Z,4.14
2023-04-11T22:08:29.290Z,4.06
2023-04-11T22:10:56.364Z,3.89
2023-04-11T22:13:23.434Z,3.96
2023-04-11T22:16:05.079Z,3.92
2023-04-11T22:18:38.192Z,4.13
2023-04-11T22:21:09.029Z,4.18
2023-04-11T22:23:36.154Z,4.11
2023-04-11T22:26:03.306Z,4.13
2023-04-11T22:28:30.367Z,4.17
2023-04-11T22:30:57.831Z,4.20
2023-04-11T22:33:24.953Z,4.23
2023-04-11T22:35:53.485Z,4.15
2023-04-11T22:38:21.569Z,4.08
2023-04-11T22:40:48.649Z,4.09
2023-04-11T22:43:15.707Z,3.99
2023-04-11T22:45:43.102Z,4.00
2023-04-11T22:48:10.339Z,4.02
2023-04-11T22:50:37.936Z,3.92
2023-04-11T22:53:05.547Z,3.84
2023-04-11T22:55:35.695Z,3.92
2023-04-11T22:58:03.183Z,4.00
2023-04-11T23:00:30.295Z,3.95
2023-04-11T23:02:59.562Z,3.99
2023-04-11T23:05:26.956Z,3.99
2023-04-11T23:07:53.995Z,4.01
2023-04-11T23:10:21.154Z,4.02
2023-04-11T23:12:49.229Z,3.90
2023-04-11T23:15:17.366Z,3.94
2023-04-11T23:17:44.931Z,3.94
2023-04-11T23:20:13.398Z,3.92
2023-04-11T23:22:42.282Z,3.70
2023-04-11T23:25:12.648Z,3.76
2023-04-11T23:27:39.767Z,3.75
2023-04-11T23:30:07.578Z,3.64
2023-04-11T23:32:34.760Z,3.84
2023-04-11T23:35:03.066Z,3.72
2023-04-11T23:37:31.895Z,3.66
2023-04-11T23:39:59.519Z,3.59
2023-04-11T23:42:26.611Z,3.52
2023-04-11T23:44:53.703Z,3.57
2023-04-11T23:47:20.839Z,3.55
2023-04-11T23:49:47.917Z,3.79
2023-04-11T23:52:15.070Z,3.85
2023-04-11T23:54:42.124Z,3.84
2023-04-11T23:57:09.227Z,3.84
2023-04-11T23:59:37.259Z,3.70
